OIIS  Semnan Airport

Add Bookmark

Semnan, Iran

Status
Operational
Latitude Longitude
35° 35' 27" N 53° 29' 42" E
35.591099 53.495098
Local (DST + 5) UTC (GMT + 4)
Aug 1, 2014 04:19 Aug 1, 2014 11:49
Sunrise-Sunset Local UTC
Begin Civil Twilight 05:34 01:04
Sunrise 06:02 01:32
Sunset 08:01 15:31
End Civil Twilight 08:29 15:59

Current Weather

METAR Observed VFR
OIIS 011100Z 00000KT 9999 FEW035 SCT100 36/08 Q1012 Fri, Aug 1, 2014 @ 11:00 UTC
(49 Minutes ago)
Visual Flight Rules

Decoded METAR

Wind Visibility Clouds Conditions
Calm 10 km or more
  • Few at 3,500' AGL
  • Scattered at 10,000' AGL
  • No significant weather
Temperatures Readings Precipitation
Current Temp 36°C (97°F)
Dewpoint 8°C (46°F)
Humidity 18%
Altimeter 29.88"Hg
Sea Level Pressure 1012mb
Field Elevation 3658.14'
None Recorded

Additional weather within a 185.2km radius of OIIS

Map ICAO Location
OINZ 119.3km N (347°)
OINB 146.5km N (329°)
OING 167.4km N (029°)

24 Hour Weather History

Loading
-

24 Hour Weather Graphs

Loading
-

CheckWX.com is intended as a tool to help pilots better visualize weather data. It is not intended as a substitute for an official weather briefing obtained from a Flight Service Station. CheckWX.com does not meet the FAA requirements for an official pre-flight weather briefing. Therefore, it's important that pilots still call and obtain an official FSS pre-flight weather briefing.